createdAt,value
2023-09-09T00:02:01.356Z,91.83
2023-09-09T00:04:35.090Z,91.81
2023-09-09T00:07:14.023Z,91.90
2023-09-09T00:09:44.475Z,92.05
2023-09-09T00:14:51.363Z,92.08
2023-09-09T00:17:21.646Z,92.89
2023-09-09T00:19:58.325Z,92.16
2023-09-09T00:22:28.280Z,92.44
2023-09-09T00:24:58.189Z,92.59
2023-09-09T00:27:33.841Z,92.61
2023-09-09T00:30:04.761Z,92.35
2023-09-09T00:32:39.752Z,92.84
2023-09-09T00:35:14.498Z,92.65
2023-09-09T00:37:44.192Z,92.66
2023-09-09T00:40:15.589Z,93.22
2023-09-09T00:42:52.507Z,93.15
2023-09-09T00:45:23.221Z,92.78
2023-09-09T00:47:53.204Z,93.22
2023-09-09T00:50:26.546Z,92.93
2023-09-09T00:52:56.466Z,93.16
2023-09-09T00:55:30.036Z,93.61
2023-09-09T00:57:59.456Z,93.47
2023-09-09T01:00:28.655Z,93.94
2023-09-09T01:02:58.124Z,93.76
2023-09-09T01:08:11.217Z,93.86
2023-09-09T01:10:45.825Z,93.52
2023-09-09T01:13:15.544Z,93.70
2023-09-09T01:15:45.432Z,94.27
2023-09-09T01:18:22.790Z,94.32
2023-09-09T01:21:05.850Z,94.62
2023-09-09T01:23:43.179Z,94.30
2023-09-09T01:26:12.672Z,94.56
2023-09-09T01:28:44.632Z,94.66
2023-09-09T01:31:15.048Z,94.74
2023-09-09T01:33:51.441Z,95.00
2023-09-09T01:36:20.856Z,94.96
2023-09-09T01:38:52.472Z,95.17
2023-09-09T01:41:26.059Z,95.85
2023-09-09T01:44:00.655Z,96.18
2023-09-09T01:46:30.289Z,96.34
2023-09-09T01:49:09.013Z,96.97
2023-09-09T01:51:39.323Z,97.61
2023-09-09T01:54:12.052Z,97.67
2023-09-09T01:56:47.323Z,97.84
2023-09-09T01:59:17.703Z,98.19
2023-09-09T02:01:47.309Z,98.73
2023-09-09T02:04:19.041Z,98.61
2023-09-09T02:09:26.953Z,98.26
2023-09-09T02:12:08.092Z,98.20
2023-09-09T02:14:41.225Z,98.25
2023-09-09T02:17:18.292Z,98.79
2023-09-09T02:19:48.637Z,98.28
2023-09-09T02:22:18.388Z,98.26
2023-09-09T02:25:08.508Z,97.91
2023-09-09T02:27:39.040Z,97.58
2023-09-09T02:30:10.371Z,98.19
2023-09-09T02:32:44.842Z,97.47
2023-09-09T02:35:14.582Z,97.43
2023-09-09T02:37:46.845Z,97.48
2023-09-09T02:40:17.951Z,96.71
2023-09-09T02:42:48.588Z,96.74
2023-09-09T02:45:18.252Z,97.18
2023-09-09T02:47:47.491Z,96.89
2023-09-09T02:50:21.383Z,96.88
2023-09-09T02:52:51.846Z,96.77
2023-09-09T02:58:07.590Z,96.56
2023-09-09T03:00:37.097Z,96.37
2023-09-09T03:03:07.355Z,96.58
2023-09-09T03:05:39.967Z,96.65
2023-09-09T03:08:17.549Z,97.24
2023-09-09T03:10:48.789Z,96.56
2023-09-09T03:16:05.063Z,95.84
2023-09-09T03:18:39.625Z,96.12
2023-09-09T03:21:10.252Z,96.07
2023-09-09T03:23:50.478Z,95.97
2023-09-09T03:26:23.530Z,95.56
2023-09-09T03:28:57.901Z,95.66
2023-09-09T03:31:29.484Z,94.55
2023-09-09T03:36:40.720Z,94.55
2023-09-09T03:39:10.257Z,94.09
2023-09-09T03:41:52.266Z,94.23
2023-09-09T03:44:23.808Z,93.95
2023-09-09T03:47:00.327Z,93.41
2023-09-09T03:49:34.789Z,93.43
2023-09-09T03:52:04.851Z,93.28
2023-09-09T03:54:36.649Z,93.21
2023-09-09T03:59:52.248Z,91.16
2023-09-09T04:02:23.715Z,91.29
2023-09-09T04:04:55.165Z,91.11
2023-09-09T04:07:25.971Z,90.63
2023-09-09T04:09:59.245Z,91.03
2023-09-09T04:12:30.545Z,90.61
2023-09-09T04:15:01.164Z,91.21
2023-09-09T04:17:35.185Z,91.62
2023-09-09T04:20:13.142Z,92.17
2023-09-09T04:22:45.739Z,92.33
2023-09-09T04:28:00.241Z,91.11
2023-09-09T04:30:35.476Z,90.56
2023-09-09T04:33:05.402Z,89.57
2023-09-09T04:35:34.994Z,88.38
2023-09-09T04:38:12.420Z,87.89
2023-09-09T04:40:43.251Z,86.78
2023-09-09T04:43:16.344Z,87.05
2023-09-09T04:45:46.024Z,86.31
2023-09-09T04:48:16.217Z,85.81
2023-09-09T04:50:45.773Z,84.61
2023-09-09T04:53:21.159Z,84.18
2023-09-09T04:55:54.036Z,84.12
2023-09-09T04:58:26.965Z,83.70
2023-09-09T05:00:56.371Z,84.04
2023-09-09T05:03:27.138Z,84.33
2023-09-09T05:06:04.084Z,84.63
2023-09-09T05:08:36.166Z,84.62
2023-09-09T05:11:08.745Z,84.23
2023-09-09T05:13:40.279Z,84.36
2023-09-09T05:16:10.374Z,84.38
2023-09-09T05:18:41.731Z,84.34
2023-09-09T05:21:11.178Z,83.24
2023-09-09T05:23:46.295Z,83.01
2023-09-09T05:26:16.163Z,82.00
2023-09-09T05:28:50.066Z,81.76
2023-09-09T05:31:23.399Z,81.28
2023-09-09T05:33:53.882Z,81.27
2023-09-09T05:36:24.427Z,80.33
2023-09-09T05:39:02.917Z,79.67
2023-09-09T05:41:42.640Z,78.95
2023-09-09T05:44:15.352Z,78.21
2023-09-09T05:46:46.192Z,78.34
2023-09-09T05:49:36.184Z,76.89
2023-09-09T05:52:15.684Z,76.12
2023-09-09T05:54:45.701Z,75.81
2023-09-09T05:57:15.510Z,75.96
2023-09-09T05:59:52.151Z,75.12
2023-09-09T06:02:22.782Z,75.52
2023-09-09T06:04:57.558Z,74.82
2023-09-09T06:10:08.754Z,72.18
2023-09-09T06:12:38.223Z,71.13
2023-09-09T06:15:14.027Z,70.78
2023-09-09T06:17:51.065Z,71.14
2023-09-09T06:20:21.678Z,71.26
2023-09-09T06:22:56.956Z,70.06
2023-09-09T06:25:29.026Z,69.03
2023-09-09T06:28:04.016Z,68.09
2023-09-09T06:30:35.836Z,66.68
2023-09-09T06:35:51.039Z,65.03
2023-09-09T06:38:23.834Z,64.80
2023-09-09T06:40:53.467Z,65.32
2023-09-09T06:43:23.749Z,64.45
2023-09-09T06:45:55.653Z,63.43
2023-09-09T06:48:25.718Z,63.04
2023-09-09T06:50:57.276Z,61.68
2023-09-09T06:56:08.107Z,59.70
2023-09-09T06:58:44.467Z,59.40
2023-09-09T07:01:16.597Z,59.64
2023-09-09T07:03:46.301Z,59.82
2023-09-09T07:06:22.601Z,57.10
2023-09-09T07:08:52.379Z,56.02
2023-09-09T07:11:22.091Z,55.69
2023-09-09T07:13:52.654Z,54.66
2023-09-09T07:16:24.950Z,55.54
2023-09-09T07:19:00.774Z,56.21
2023-09-09T07:21:30.162Z,55.89
2023-09-09T07:23:59.782Z,56.05
2023-09-09T07:26:32.694Z,56.09
2023-09-09T07:29:08.052Z,56.75
2023-09-09T07:31:40.675Z,56.28
2023-09-09T07:34:16.404Z,56.32
2023-09-09T07:36:50.037Z,56.98
2023-09-09T07:39:20.594Z,57.52
2023-09-09T07:41:56.421Z,58.68
2023-09-09T07:44:27.226Z,59.40
2023-09-09T07:46:59.190Z,59.22
2023-09-09T07:49:30.629Z,58.66
2023-09-09T07:52:00.691Z,59.08
2023-09-09T07:54:30.098Z,59.50
2023-09-09T07:57:01.238Z,59.61
2023-09-09T07:59:33.643Z,59.82
2023-09-09T08:02:08.293Z,59.18
2023-09-09T08:04:43.728Z,58.94
2023-09-09T08:07:18.653Z,58.95
2023-09-09T08:09:49.141Z,58.94
2023-09-09T08:12:28.793Z,59.60
2023-09-09T08:15:08.057Z,60.26
2023-09-09T08:17:46.192Z,60.20
2023-09-09T08:20:16.241Z,60.13
2023-09-09T08:22:47.358Z,59.96
2023-09-09T08:25:24.725Z,60.67
2023-09-09T08:27:54.364Z,61.15
2023-09-09T08:30:26.431Z,61.61
2023-09-09T08:33:03.095Z,61.29
2023-09-09T08:35:37.052Z,60.82
2023-09-09T08:38:07.681Z,61.27
2023-09-09T08:40:43.894Z,60.68
2023-09-09T08:43:22.188Z,60.72
2023-09-09T08:46:02.335Z,60.88
2023-09-09T08:48:40.114Z,60.37
2023-09-09T08:51:12.027Z,59.82
2023-09-09T08:53:49.468Z,59.69
2023-09-09T08:56:20.950Z,59.35
2023-09-09T08:59:00.636Z,59.82
2023-09-09T09:01:42.886Z,60.03
2023-09-09T09:04:23.630Z,61.05
2023-09-09T09:06:54.682Z,61.87
2023-09-09T09:09:29.447Z,62.57
2023-09-09T09:12:01.722Z,62.93
2023-09-09T09:14:37.070Z,63.45
2023-09-09T09:17:08.915Z,63.14
2023-09-09T09:19:46.671Z,62.82
2023-09-09T09:22:17.276Z,62.73
2023-09-09T09:24:47.914Z,63.33
2023-09-09T09:27:22.589Z,63.36
2023-09-09T09:29:55.111Z,63.87
2023-09-09T09:32:26.309Z,64.38
2023-09-09T09:34:57.817Z,64.21
2023-09-09T09:37:29.451Z,63.13
2023-09-09T09:39:58.848Z,63.36
2023-09-09T09:42:29.259Z,64.03
2023-09-09T09:45:11.795Z,63.75
2023-09-09T09:47:47.463Z,62.94
2023-09-09T09:50:34.524Z,62.26
2023-09-09T09:53:06.801Z,63.01
2023-09-09T09:55:51.044Z,63.06
2023-09-09T09:58:24.930Z,63.21
2023-09-09T10:00:57.732Z,63.11
2023-09-09T10:03:31.918Z,63.20
2023-09-09T10:06:03.855Z,63.71
2023-09-09T10:08:40.775Z,64.67
2023-09-09T10:11:20.828Z,64.74
2023-09-09T10:13:57.810Z,65.76
2023-09-09T10:16:34.765Z,65.58
2023-09-09T10:19:06.950Z,65.48
2023-09-09T10:21:42.661Z,65.47
2023-09-09T10:24:14.090Z,64.85
2023-09-09T10:29:27.930Z,65.53
2023-09-09T10:32:03.917Z,66.42
2023-09-09T10:37:21.877Z,66.51
2023-09-09T10:39:54.322Z,66.66
2023-09-09T10:42:25.421Z,67.50
2023-09-09T10:44:57.228Z,68.31
2023-09-09T10:47:27.657Z,68.63
2023-09-09T10:50:13.032Z,69.13
2023-09-09T10:52:49.396Z,68.77
2023-09-09T10:55:20.055Z,68.45
2023-09-09T10:57:59.541Z,68.39
2023-09-09T11:03:28.552Z,68.96
2023-09-09T11:06:22.371Z,69.02
2023-09-09T11:08:57.456Z,69.31
2023-09-09T11:11:29.122Z,70.04
2023-09-09T11:14:06.806Z,69.65
2023-09-09T11:16:38.142Z,69.48
2023-09-09T11:19:13.105Z,70.23
2023-09-09T11:21:49.172Z,71.02
2023-09-09T11:24:21.915Z,71.80
2023-09-09T11:29:36.972Z,71.04
2023-09-09T11:32:12.365Z,71.39
2023-09-09T11:34:45.548Z,71.67
2023-09-09T11:37:15.607Z,71.25
2023-09-09T11:39:47.698Z,71.08
2023-09-09T11:42:17.342Z,70.73
2023-09-09T11:44:47.617Z,70.60
2023-09-09T11:47:18.392Z,70.07
2023-09-09T11:52:25.575Z,69.13
2023-09-09T11:54:58.353Z,68.65
2023-09-09T12:00:06.997Z,69.60
2023-09-09T12:02:41.503Z,69.44
2023-09-09T12:05:15.865Z,69.50
2023-09-09T12:07:46.271Z,69.11
2023-09-09T12:10:23.614Z,69.21
2023-09-09T12:12:54.003Z,69.38
2023-09-09T12:15:25.050Z,69.94
2023-09-09T12:18:02.951Z,69.69
2023-09-09T12:20:34.818Z,70.09
2023-09-09T12:23:05.562Z,70.49
2023-09-09T12:25:39.711Z,70.10
2023-09-09T12:28:29.199Z,70.02
2023-09-09T12:31:02.638Z,69.86
2023-09-09T12:33:40.045Z,70.22
2023-09-09T12:36:18.789Z,71.11
2023-09-09T12:41:34.113Z,71.50
2023-09-09T12:49:23.134Z,70.55
2023-09-09T12:51:53.792Z,70.98
2023-09-09T12:54:23.583Z,70.99
2023-09-09T12:56:53.834Z,71.31
2023-09-09T12:59:24.888Z,71.55
2023-09-09T13:01:56.898Z,71.28
2023-09-09T13:04:36.295Z,70.76
2023-09-09T13:07:07.401Z,70.63
2023-09-09T13:09:42.067Z,70.35
2023-09-09T13:12:12.953Z,70.89
2023-09-09T13:14:48.258Z,70.77
2023-09-09T13:17:20.197Z,71.13
2023-09-09T13:19:54.014Z,71.53
2023-09-09T13:22:28.182Z,71.66
2023-09-09T13:25:02.887Z,71.37
2023-09-09T13:27:41.886Z,71.48
2023-09-09T13:30:14.796Z,72.18
2023-09-09T13:32:51.160Z,72.29
2023-09-09T13:35:32.301Z,72.23
2023-09-09T13:38:02.310Z,72.34
2023-09-09T13:40:31.982Z,72.81
2023-09-09T13:43:02.477Z,72.92
2023-09-09T13:45:31.964Z,73.07
2023-09-09T13:48:07.870Z,73.09
2023-09-09T13:50:40.557Z,73.23
2023-09-09T13:53:17.797Z,72.98
2023-09-09T13:55:48.944Z,73.28
2023-09-09T13:58:19.394Z,73.79
2023-09-09T14:00:59.036Z,74.00
2023-09-09T14:03:37.938Z,74.29
2023-09-09T14:06:11.581Z,74.43
2023-09-09T14:08:42.720Z,74.29
2023-09-09T14:11:21.073Z,73.47
2023-09-09T14:13:51.207Z,74.09
2023-09-09T14:16:22.728Z,74.18
2023-09-09T14:18:53.715Z,73.45
2023-09-09T14:21:25.836Z,73.53
2023-09-09T14:23:56.924Z,73.77
2023-09-09T14:26:31.862Z,73.86
2023-09-09T14:29:02.716Z,73.75
2023-09-09T14:31:32.621Z,73.63
2023-09-09T14:34:02.919Z,74.08
2023-09-09T14:36:39.838Z,74.64
2023-09-09T14:39:10.018Z,74.43
2023-09-09T14:41:40.590Z,74.18
2023-09-09T14:44:15.198Z,74.07
2023-09-09T14:46:44.652Z,73.83
2023-09-09T14:49:15.042Z,74.12
2023-09-09T14:51:46.752Z,74.37
2023-09-09T14:54:16.636Z,74.38
2023-09-09T14:56:47.428Z,74.25
2023-09-09T14:59:18.595Z,74.13
2023-09-09T15:01:48.269Z,74.50
2023-09-09T15:04:18.422Z,74.70
2023-09-09T15:06:55.962Z,75.03
2023-09-09T15:09:25.876Z,74.91
2023-09-09T15:11:59.314Z,75.14
2023-09-09T15:14:30.021Z,74.62
2023-09-09T15:19:37.769Z,75.19
2023-09-09T15:22:10.207Z,75.83
2023-09-09T15:24:41.152Z,75.79
2023-09-09T15:27:17.258Z,75.09
2023-09-09T15:29:56.908Z,75.17
2023-09-09T15:32:27.526Z,75.26
2023-09-09T15:34:58.421Z,75.42
2023-09-09T15:37:37.867Z,75.43
2023-09-09T15:42:47.617Z,75.22
2023-09-09T15:45:17.488Z,75.54
2023-09-09T15:47:52.361Z,75.86
2023-09-09T15:50:23.320Z,75.80
2023-09-09T15:55:33.438Z,76.39
2023-09-09T15:58:04.664Z,76.11
2023-09-09T16:00:36.554Z,76.59
2023-09-09T16:03:08.129Z,76.25
2023-09-09T16:05:39.335Z,76.36
2023-09-09T16:08:11.676Z,76.46
2023-09-09T16:10:48.965Z,76.48
2023-09-09T16:13:18.893Z,76.05
2023-09-09T16:16:02.692Z,76.15
2023-09-09T16:18:40.890Z,76.17
2023-09-09T16:21:11.820Z,76.10
2023-09-09T16:23:44.289Z,76.20
2023-09-09T16:26:19.079Z,76.89
2023-09-09T16:28:50.569Z,76.95
2023-09-09T16:31:22.506Z,76.29
2023-09-09T16:33:52.517Z,76.58
2023-09-09T16:36:25.701Z,76.46
2023-09-09T16:38:57.973Z,76.66
2023-09-09T16:41:33.098Z,76.57
2023-09-09T16:44:07.210Z,76.04
2023-09-09T16:46:43.410Z,76.66
2023-09-09T16:49:17.504Z,76.64
2023-09-09T16:51:52.308Z,76.43
2023-09-09T16:54:24.445Z,77.05
2023-09-09T16:56:54.510Z,76.70
2023-09-09T16:59:28.459Z,76.61
2023-09-09T17:02:00.363Z,76.87
2023-09-09T17:04:31.920Z,76.82
2023-09-09T17:07:08.116Z,76.96
2023-09-09T17:09:43.936Z,76.99
2023-09-09T17:12:14.622Z,77.62
2023-09-09T17:14:44.063Z,77.24
2023-09-09T17:17:26.544Z,77.36
2023-09-09T17:19:56.255Z,77.18
2023-09-09T17:22:26.195Z,77.17
2023-09-09T17:27:40.455Z,77.65
2023-09-09T17:30:14.143Z,78.10
2023-09-09T17:32:46.895Z,77.67
2023-09-09T17:35:22.113Z,78.04
2023-09-09T17:37:57.973Z,78.23
2023-09-09T17:40:32.344Z,77.71
2023-09-09T17:43:03.261Z,77.94
2023-09-09T17:45:33.813Z,77.58
2023-09-09T17:48:03.658Z,77.77
2023-09-09T17:50:38.175Z,78.11
2023-09-09T17:53:07.950Z,78.29
2023-09-09T17:55:46.891Z,78.08
2023-09-09T17:58:16.679Z,78.54
2023-09-09T18:00:47.879Z,78.69
2023-09-09T18:03:20.391Z,79.68
2023-09-09T18:05:50.010Z,79.95
2023-09-09T18:08:25.544Z,80.49
2023-09-09T18:10:58.550Z,81.38
2023-09-09T18:13:29.179Z,82.14
2023-09-09T18:15:59.116Z,82.74
2023-09-09T18:18:29.876Z,82.79
2023-09-09T18:20:59.555Z,83.66
2023-09-09T18:23:30.368Z,84.18
2023-09-09T18:26:04.015Z,84.50
2023-09-09T18:28:34.647Z,85.05
2023-09-09T18:31:06.318Z,85.48
2023-09-09T18:33:36.197Z,85.43
2023-09-09T18:36:07.753Z,85.33
2023-09-09T18:38:39.777Z,86.63
2023-09-09T18:41:18.191Z,87.25
2023-09-09T18:46:25.212Z,87.64
2023-09-09T18:48:55.989Z,87.13
2023-09-09T18:51:26.214Z,87.77
2023-09-09T18:53:55.618Z,87.90
2023-09-09T18:56:28.063Z,88.59
2023-09-09T18:59:04.749Z,88.30
2023-09-09T19:01:36.197Z,88.36
2023-09-09T19:04:13.767Z,87.78
2023-09-09T19:06:43.402Z,88.15
2023-09-09T19:09:16.108Z,87.55
2023-09-09T19:11:54.554Z,87.80
2023-09-09T19:14:24.456Z,87.63
2023-09-09T19:16:54.087Z,88.32
2023-09-09T19:19:23.728Z,88.08
2023-09-09T19:21:53.466Z,87.50
2023-09-09T19:24:22.894Z,87.39
2023-09-09T19:26:54.625Z,87.53
2023-09-09T19:29:24.131Z,86.81
2023-09-09T19:32:01.226Z,87.23
2023-09-09T19:34:31.014Z,86.39
2023-09-09T19:37:00.691Z,86.58
2023-09-09T19:39:34.647Z,86.80
2023-09-09T19:42:08.475Z,87.06
2023-09-09T19:44:38.289Z,86.65
2023-09-09T19:47:08.808Z,86.82
2023-09-09T19:49:38.482Z,87.07
2023-09-09T19:52:08.793Z,86.89
2023-09-09T19:54:38.948Z,87.18
2023-09-09T19:57:20.054Z,87.14
2023-09-09T19:59:51.496Z,87.31
2023-09-09T20:02:21.468Z,87.34
2023-09-09T20:04:59.376Z,86.63
2023-09-09T20:07:29.881Z,86.93
2023-09-09T20:10:13.746Z,87.29
2023-09-09T20:12:47.001Z,87.32
2023-09-09T20:15:17.210Z,86.79
2023-09-09T20:17:47.478Z,86.84
2023-09-09T20:20:18.649Z,86.72
2023-09-09T20:22:50.389Z,86.72
2023-09-09T20:25:21.999Z,87.23
2023-09-09T20:27:54.562Z,86.44
2023-09-09T20:30:29.357Z,86.25
2023-09-09T20:33:00.611Z,86.70
2023-09-09T20:35:35.209Z,86.97
2023-09-09T20:38:10.188Z,87.23
2023-09-09T20:40:40.718Z,87.06
2023-09-09T20:43:12.330Z,87.50
2023-09-09T20:45:47.765Z,87.77
2023-09-09T20:48:18.091Z,88.93
2023-09-09T20:50:50.184Z,90.12
2023-09-09T20:53:19.703Z,90.19
2023-09-09T20:55:51.919Z,90.44
2023-09-09T20:58:24.981Z,91.78
2023-09-09T21:00:59.913Z,91.39
2023-09-09T21:03:33.068Z,92.42
2023-09-09T21:06:03.245Z,92.52
2023-09-09T21:08:37.978Z,92.86
2023-09-09T21:13:52.352Z,93.42
2023-09-09T21:16:31.908Z,93.30
2023-09-09T21:19:03.519Z,93.61
2023-09-09T21:21:39.901Z,93.75
2023-09-09T21:24:13.938Z,94.21
2023-09-09T21:26:53.529Z,94.54
2023-09-09T21:29:28.327Z,94.21
2023-09-09T21:32:10.008Z,94.57
2023-09-09T21:34:40.357Z,94.30
2023-09-09T21:37:15.637Z,94.80
2023-09-09T21:39:45.242Z,94.88
2023-09-09T21:42:16.996Z,95.40
2023-09-09T21:44:55.175Z,94.94
2023-09-09T21:47:25.075Z,94.99
2023-09-09T21:49:55.064Z,94.82
2023-09-09T21:52:29.513Z,94.92
2023-09-09T21:55:00.402Z,95.11
2023-09-09T21:57:35.220Z,95.05
2023-09-09T22:00:19.865Z,95.21
2023-09-09T22:02:55.953Z,95.58
2023-09-09T22:05:25.368Z,95.58
2023-09-09T22:07:55.011Z,96.16
2023-09-09T22:10:26.415Z,95.97
2023-09-09T22:12:56.835Z,96.11
2023-09-09T22:15:28.498Z,96.57
2023-09-09T22:18:05.160Z,96.40
2023-09-09T22:20:36.163Z,96.45
2023-09-09T22:23:06.960Z,96.38
2023-09-09T22:25:46.115Z,97.06
2023-09-09T22:28:15.295Z,97.67
2023-09-09T22:30:46.974Z,98.18
2023-09-09T22:33:16.294Z,98.32
2023-09-09T22:38:24.970Z,98.98
2023-09-09T22:40:56.602Z,99.07
2023-09-09T22:46:14.866Z,99.31
2023-09-09T22:48:46.554Z,99.67
2023-09-09T22:53:57.629Z,100.00
2023-09-09T22:56:32.304Z,100.00
2023-09-09T22:59:07.893Z,100.00
2023-09-09T23:01:40.041Z,100.00
2023-09-09T23:04:09.345Z,100.00
2023-09-09T23:06:38.937Z,100.00
2023-09-09T23:09:15.799Z,100.00
2023-09-09T23:11:45.161Z,100.00
2023-09-09T23:14:14.860Z,100.00
2023-09-09T23:19:24.245Z,100.00
2023-09-09T23:22:03.372Z,100.00
2023-09-09T23:24:39.127Z,100.00
2023-09-09T23:27:14.243Z,100.00
2023-09-09T23:29:48.516Z,100.00
2023-09-09T23:32:20.111Z,100.00
2023-09-09T23:34:51.946Z,100.00
2023-09-09T23:37:20.894Z,100.00
2023-09-09T23:39:50.329Z,100.00
2023-09-09T23:42:20.914Z,100.00
2023-09-09T23:44:58.637Z,100.00
2023-09-09T23:47:31.231Z,100.00
2023-09-09T23:50:01.595Z,100.00
2023-09-09T23:52:33.683Z,100.00
2023-09-09T23:55:04.104Z,100.00
2023-09-09T23:57:33.842Z,100.00
